Time;durP1;ratioP1;P1;durP2;ratioP2;P2;SDS_P1;SDS_P2;PMS_P1;PMS_P2;Temp;Humidity;BMP_temperature;BMP_pressure;BME280_temperature;BME280_humidity;BME280_pressure;Samples;Min_cycle;Max_cycle;Signal;HPM_P1;HPM_P2
2022/04/27 00:00:59;;;;;;;;;;;;;;;7.62;100.00;99462.03;1663380;85;20157;-67
2022/04/27 00:03:30;;;;;;;;;;;;;;;7.57;100.00;99466.77;1663458;85;20122;-68
2022/04/27 00:05:57;;;;;;;;;;;;;;;7.53;100.00;99465.19;1663223;85;21802;-68
2022/04/27 00:08:28;;;;;;;;;;;;;;;7.50;100.00;99469.09;1664959;85;20126;-67
2022/04/27 00:11:01;;;;;;;;;;;;;;;7.46;100.00;99466.14;1660660;86;20252;-67
2022/04/27 00:13:31;;;;;;;;;;;;;;;7.43;100.00;99468.66;1656404;84;20174;-66
2022/04/27 00:15:57;;;;;;;;;;;;;;;7.40;100.00;99473.34;1663906;86;20157;-67
2022/04/27 00:18:31;;;;;;;;;;;;;;;7.36;100.00;99474.49;1664188;86;21176;-67
2022/04/27 00:21:04;;;;;;;;;;;;;;;7.33;100.00;99469.63;1642889;86;20158;-67
2022/04/27 00:23:39;;;;;;;;;;;;;;;7.29;100.00;99470.77;1649927;85;20445;-67
2022/04/27 00:26:16;;;;;;;;;;;;;;;7.26;100.00;99470.55;1660076;86;20801;-68
2022/04/27 00:28:45;;;;;;;;;;;;;;;7.22;100.00;99470.33;1662891;86;20174;-67
2022/04/27 00:31:20;;;;;;;;;;;;;;;7.19;100.00;99472.28;1663073;84;21931;-67
2022/04/27 00:33:46;;;;;;;;;;;;;;;7.16;100.00;99474.78;1661966;86;20133;-67
2022/04/27 00:36:17;;;;;;;;;;;;;;;7.12;100.00;99474.56;1629893;86;20116;-68
2022/04/27 00:38:50;;;;;;;;;;;;;;;7.09;100.00;99473.78;1619223;88;20125;-67
2022/04/27 00:41:18;;;;;;;;;;;;;;;7.05;100.00;99474.67;1648594;86;20123;-67
2022/04/27 00:43:49;;;;;;;;;;;;;;;7.01;100.00;99476.36;1617413;86;20704;-68
2022/04/27 00:46:22;;;;;;;;;;;;;;;6.97;100.00;99480.23;1633196;86;20602;-68
2022/04/27 00:48:56;;;;;;;;;;;;;;;6.93;100.00;99476.48;1597145;88;20180;-67
2022/04/27 00:51:23;;;;;;;;;;;;;;;6.90;100.00;99479.80;1658956;85;20178;-68
2022/04/27 00:53:53;;;;;;;;;;;;;;;6.87;100.00;99484.48;1641461;85;20150;-68
2022/04/27 00:56:22;;;;;;;;;;;;;;;6.86;100.00;99479.58;1648526;85;21169;-67
2022/04/27 00:58:56;;;;;;;;;;;;;;;6.85;100.00;99482.59;1619567;88;20444;-67
2022/04/27 01:01:22;;;;;;;;;;;;;;;6.82;100.00;99485.91;1641742;86;20090;-67
2022/04/27 01:03:53;;;;;;;;;;;;;;;6.78;100.00;99486.23;1625131;86;20120;-67
2022/04/27 01:06:21;;;;;;;;;;;;;;;6.75;100.00;99490.91;1607758;86;20120;-66
2022/04/27 01:08:50;;;;;;;;;;;;;;;6.71;100.00;99489.87;1615380;87;21863;-66
2022/04/27 01:11:24;;;;;;;;;;;;;;;6.66;100.00;99492.10;1639285;86;20485;-68
2022/04/27 01:13:57;;;;;;;;;;;;;;;6.62;100.00;99493.23;1637728;85;20458;-66
2022/04/27 01:16:27;;;;;;;;;;;;;;;6.59;100.00;99491.09;1598068;88;20431;-67
2022/04/27 01:19:07;;;;;;;;;;;;;;;6.56;100.00;99490.86;1646049;86;20126;-68
2022/04/27 01:21:27;;;;;;;;;;;;;;;6.52;100.00;99495.27;1648539;86;20089;-68
2022/04/27 01:24:01;;;;;;;;;;;;;;;6.48;100.00;99496.40;1619754;86;20143;-68
2022/04/27 01:26:39;;;;;;;;;;;;;;;6.42;100.00;99496.19;1618033;87;32566;-68
2022/04/27 01:29:09;;;;;;;;;;;;;;;6.38;100.00;99504.69;1648342;86;20457;-66
2022/04/27 01:31:43;;;;;;;;;;;;;;;6.33;100.00;99499.87;1646614;86;20429;-67
2022/04/27 01:34:12;;;;;;;;;;;;;;;6.28;100.00;99502.91;1656010;86;21347;-67
2022/04/27 01:36:40;;;;;;;;;;;;;;;6.25;100.00;99504.03;1614490;86;20477;-67
2022/04/27 01:39:09;;;;;;;;;;;;;;;6.20;100.00;99506.81;1623602;86;20144;-68
2022/04/27 01:41:40;;;;;;;;;;;;;;;6.15;100.00;99509.58;1623171;85;20208;-68
2022/04/27 01:44:10;;;;;;;;;;;;;;;6.10;100.00;99507.72;1596831;87;20605;-67
2022/04/27 01:46:39;;;;;;;;;;;;;;;6.08;100.00;99509.92;1633223;86;21942;-67
2022/04/27 01:49:11;;;;;;;;;;;;;;;6.05;100.00;99509.12;1570471;89;20142;-67
2022/04/27 01:54:26;;;;;;;;;;;;;;;6.02;100.00;99514.34;1596490;89;20102;-68
2022/04/27 01:56:53;;;;;;;;;;;;;;;6.01;100.00;99512.71;1625391;87;20148;-67
2022/04/27 01:59:20;;;;;;;;;;;;;;;6.00;100.00;99507.00;1622216;87;21266;-68
2022/04/27 02:01:57;;;;;;;;;;;;;;;5.98;100.00;99501.02;1603699;87;20155;-68
2022/04/27 02:04:28;;;;;;;;;;;;;;;5.95;100.00;99501.05;1587932;89;20454;-67
2022/04/27 02:07:08;;;;;;;;;;;;;;;5.92;100.00;99505.70;1622307;88;20151;-68
2022/04/27 02:09:30;;;;;;;;;;;;;;;5.89;100.00;99503.00;1637967;85;20523;-68
2022/04/27 02:11:56;;;;;;;;;;;;;;;5.87;100.00;99507.89;1648595;84;20129;-67
2022/04/27 02:14:30;;;;;;;;;;;;;;;5.82;100.00;99510.66;1650007;85;20081;-67
2022/04/27 02:17:02;;;;;;;;;;;;;;;5.79;100.00;99509.05;1656111;86;20123;-68
2022/04/27 02:19:33;;;;;;;;;;;;;;;5.75;100.00;99503.94;1642031;86;20101;-68
2022/04/27 02:22:05;;;;;;;;;;;;;;;5.72;100.00;99512.13;1596594;88;20095;-68
2022/04/27 02:24:34;;;;;;;;;;;;;;;5.68;100.00;99512.44;1624789;87;21313;-68
2022/04/27 02:27:06;;;;;;;;;;;;;;;5.63;100.00;99513.83;1654840;85;20130;-66
2022/04/27 02:29:37;;;;;;;;;;;;;;;5.57;100.00;99511.70;1612242;87;20172;-67
2022/04/27 02:32:07;;;;;;;;;;;;;;;5.54;100.00;99515.53;1588971;88;20176;-67
2022/04/27 02:34:38;;;;;;;;;;;;;;;5.49;100.00;99516.92;1608334;88;20156;-67
2022/04/27 02:37:05;;;;;;;;;;;;;;;5.46;100.00;99522.39;1629130;86;21190;-67
2022/04/27 02:39:39;;;;;;;;;;;;;;;5.42;100.00;99522.69;1639257;85;20145;-67
2022/04/27 02:42:12;;;;;;;;;;;;;;;5.41;100.00;99521.61;1643803;86;20106;-68
2022/04/27 02:44:37;;;;;;;;;;;;;;;5.39;100.00;99523.25;1641189;86;20175;-67
2022/04/27 02:47:07;;;;;;;;;;;;;;;5.42;100.00;99525.95;1659619;86;20420;-67
2022/04/27 02:52:23;;;;;;;;;;;;;;;5.48;100.00;99528.37;1642846;86;20126;-66
2022/04/27 02:55:08;;;;;;;;;;;;;;;5.52;100.00;99533.52;1624436;86;20546;-67
2022/04/27 02:57:37;;;;;;;;;;;;;;;5.58;100.00;99535.66;1653430;85;20138;-67
2022/04/27 03:00:09;;;;;;;;;;;;;;;5.62;100.00;99531.27;1642312;86;20177;-68
2022/04/27 03:02:39;;;;;;;;;;;;;;;5.68;100.00;99536.95;1602513;87;20135;-67
2022/04/27 03:05:07;;;;;;;;;;;;;;;5.72;100.00;99542.09;1613067;87;21840;-66
2022/04/27 03:07:38;;;;;;;;;;;;;;;5.76;100.00;99536.89;1618521;87;20125;-67
2022/04/27 03:10:09;;;;;;;;;;;;;;;5.81;100.00;99540.36;1628454;87;20117;-67
2022/04/27 03:12:42;;;;;;;;;;;;;;;5.84;100.00;99542.52;1620847;87;20159;-67
2022/04/27 03:15:15;;;;;;;;;;;;;;;5.88;100.00;99540.84;1627561;87;21152;-67
2022/04/27 03:17:42;;;;;;;;;;;;;;;5.95;100.00;99544.64;1620855;87;20109;-67
2022/04/27 03:20:10;;;;;;;;;;;;;;;5.99;100.00;99547.06;1616204;87;20401;-66
2022/04/27 03:22:38;;;;;;;;;;;;;;;6.05;100.00;99547.83;1610008;87;20539;-67
2022/04/27 03:25:07;;;;;;;;;;;;;;;6.10;100.00;99545.88;1617479;87;20105;-67
2022/04/27 03:27:38;;;;;;;;;;;;;;;6.15;100.00;99549.11;1610218;87;21192;-67
2022/04/27 03:30:11;;;;;;;;;;;;;;;6.21;100.00;99552.05;1620120;87;20183;-67
2022/04/27 03:32:43;;;;;;;;;;;;;;;6.26;100.00;99552.00;1608207;87;20148;-67
2022/04/27 03:35:09;;;;;;;;;;;;;;;6.36;100.00;99556.52;1627554;87;20473;-66
2022/04/27 03:37:37;;;;;;;;;;;;;;;6.45;100.00;99555.61;1616765;87;20180;-66
2022/04/27 03:40:06;;;;;;;;;;;;;;;6.51;100.00;99555.81;1626405;87;21134;-66
2022/04/27 03:42:40;;;;;;;;;;;;;;;6.56;100.00;99555.77;1608086;86;20124;-66
2022/04/27 03:45:05;;;;;;;;;;;;;;;6.60;100.00;99557.37;1625123;87;20457;-67
2022/04/27 03:47:40;;;;;;;;;;;;;;;6.62;100.00;99557.34;1612021;87;20189;-66
2022/04/27 03:50:12;;;;;;;;;;;;;;;6.69;100.00;99562.45;1604979;87;20219;-66
2022/04/27 03:52:43;;;;;;;;;;;;;;;6.75;100.00;99563.20;1619493;87;21207;-66
2022/04/27 03:55:19;;;;;;;;;;;;;;;6.81;100.00;99567.50;1609152;88;20156;-66
2022/04/27 03:57:50;;;;;;;;;;;;;;;6.86;100.00;99566.09;1636880;86;20156;-66
2022/04/27 04:00:20;;;;;;;;;;;;;;;6.92;100.00;99569.02;1623656;86;20149;-66
2022/04/27 04:02:53;;;;;;;;;;;;;;;6.97;100.00;99571.66;1614879;87;20112;-67
2022/04/27 04:05:23;;;;;;;;;;;;;;;7.03;100.00;99566.40;1617828;87;22101;-66
2022/04/27 04:07:59;;;;;;;;;;;;;;;7.10;100.00;99573.69;1615407;87;20084;-67
2022/04/27 04:10:24;;;;;;;;;;;;;;;7.17;100.00;99579.60;1621129;87;20435;-66
2022/04/27 04:12:59;;;;;;;;;;;;;;;7.23;100.00;99579.80;1621003;87;20489;-65
2022/04/27 04:15:41;;;;;;;;;;;;;;;7.33;100.00;99591.70;1613544;87;20127;-66
2022/04/27 04:18:33;;;;;;;;;;;;;;;7.34;100.00;99584.58;1617271;87;21196;-65
2022/04/27 04:21:17;;;;;;;;;;;;;;;7.37;100.00;99592.19;1625628;87;20133;-66
2022/04/27 04:23:56;;;;;;;;;;;;;;;7.39;100.00;99589.16;1630755;87;20100;-66
2022/04/27 04:29:10;;;;;;;;;;;;;;;7.43;100.00;99588.28;1593194;87;20458;-66
2022/04/27 04:31:40;;;;;;;;;;;;;;;7.48;100.00;99594.23;1612135;87;21799;-66
2022/04/27 04:34:28;;;;;;;;;;;;;;;7.50;100.00;99594.19;1607679;87;20212;-67
2022/04/27 04:36:58;;;;;;;;;;;;;;;7.53;100.00;99599.59;1616281;87;20200;-67
2022/04/27 04:39:27;;;;;;;;;;;;;;;7.55;100.00;99597.37;1610768;87;20423;-66
2022/04/27 04:42:03;;;;;;;;;;;;;;;7.58;100.00;99598.97;1609361;87;20140;-66
2022/04/27 04:44:29;;;;;;;;;;;;;;;7.65;100.00;99600.52;1613615;87;20147;-67
2022/04/27 04:47:14;;;;;;;;;;;;;;;7.70;100.00;99607.28;1582339;89;20687;-66
2022/04/27 04:49:59;;;;;;;;;;;;;;;7.75;100.00;99613.48;1624308;87;20239;-67
2022/04/27 04:52:42;;;;;;;;;;;;;;;7.82;100.00;99622.13;1620203;87;20323;-66
2022/04/27 04:55:27;;;;;;;;;;;;;;;7.90;100.00;99623.39;1608308;87;20139;-66
2022/04/27 04:57:57;;;;;;;;;;;;;;;7.98;100.00;99626.01;1619145;86;21213;-66
2022/04/27 05:00:38;;;;;;;;;;;;;;;8.03;100.00;99628.11;1622265;87;20175;-66
2022/04/27 05:03:14;;;;;;;;;;;;;;;8.09;100.00;99639.75;1619709;87;20208;-67
2022/04/27 05:05:42;;;;;;;;;;;;;;;8.14;100.00;99635.02;1595880;88;20457;-67
2022/04/27 05:08:22;;;;;;;;;;;;;;;8.21;100.00;99636.82;1613820;87;20124;-68
2022/04/27 05:10:59;;;;;;;;;;;;;;;8.28;100.00;99639.18;1591915;88;20126;-67
2022/04/27 05:13:47;;;;;;;;;;;;;;;8.39;100.00;99634.39;1522856;92;20259;-67
2022/04/27 05:16:42;;;;;;;;;;;;;;;8.46;100.00;99637.00;1550456;91;20186;-67
2022/04/27 05:19:23;;;;;;;;;;;;;;;8.54;100.00;99637.68;1594992;87;20430;-67
2022/04/27 05:22:02;;;;;;;;;;;;;;;8.65;100.00;99648.45;1604888;87;20163;-68
2022/04/27 05:24:40;;;;;;;;;;;;;;;8.71;100.00;99652.14;1589004;87;21087;-68
2022/04/27 05:27:13;;;;;;;;;;;;;;;8.81;100.00;99657.44;1626636;86;20125;-66
2022/04/27 05:32:59;;;;;;;;;;;;;;;9.03;100.00;99655.39;1599528;88;20181;-66
2022/04/27 05:35:40;;;;;;;;;;;;;;;9.13;98.72;99652.46;1607427;87;20175;-65
2022/04/27 05:38:09;;;;;;;;;;;;;;;9.18;97.46;99650.18;1619480;87;21129;-66
2022/04/27 05:40:43;;;;;;;;;;;;;;;9.27;98.66;99655.98;1592121;87;20194;-61
2022/04/27 05:43:27;;;;;;;;;;;;;;;9.38;98.60;99660.70;1616859;87;20158;-70
2022/04/27 05:46:01;;;;;;;;;;;;;;;9.52;96.77;99660.70;1578411;88;20125;-68
2022/04/27 05:48:33;;;;;;;;;;;;;;;9.60;96.65;99662.73;1602031;87;20296;-66
2022/04/27 05:51:23;;;;;;;;;;;;;;;9.70;95.81;99663.88;1589789;88;21889;-67
2022/04/27 05:54:09;;;;;;;;;;;;;;;9.78;96.53;99668.64;1549957;90;20143;-67
2022/04/27 05:56:41;;;;;;;;;;;;;;;9.92;95.37;99669.40;1601473;87;20188;-67
2022/04/27 05:59:11;;;;;;;;;;;;;;;10.06;95.88;99667.19;1605832;87;20214;-67
2022/04/27 06:01:59;;;;;;;;;;;;;;;10.14;91.36;99665.89;1588304;89;20434;-67
2022/04/27 06:04:29;;;;;;;;;;;;;;;10.20;91.64;99667.98;1613991;87;21320;-66
2022/04/27 06:07:07;;;;;;;;;;;;;;;10.28;90.65;99674.67;1603527;87;20140;-67
2022/04/27 06:09:33;;;;;;;;;;;;;;;10.35;90.96;99673.67;1645293;86;20154;-67
2022/04/27 06:12:07;;;;;;;;;;;;;;;10.41;89.27;99674.59;1647872;86;20495;-66
2022/04/27 06:14:36;;;;;;;;;;;;;;;10.44;86.59;99687.69;1611249;87;20201;-65
2022/04/27 06:17:08;;;;;;;;;;;;;;;10.48;88.66;99684.57;1651163;85;21285;-67
2022/04/27 06:19:42;;;;;;;;;;;;;;;10.62;90.18;99683.70;1624688;86;20515;-67
2022/04/27 06:22:10;;;;;;;;;;;;;;;10.78;87.17;99687.69;1639258;86;20228;-69
2022/04/27 06:24:38;;;;;;;;;;;;;;;10.86;86.86;99683.63;1651456;86;20121;-65
2022/04/27 06:27:28;;;;;;;;;;;;;;;10.99;87.07;99682.45;1661832;85;20449;-70
2022/04/27 06:30:04;;;;;;;;;;;;;;;11.08;83.64;99684.12;1660426;85;21264;-70
2022/04/27 06:32:32;;;;;;;;;;;;;;;11.12;85.13;99683.73;1661820;84;20113;-70
2022/04/27 06:35:01;;;;;;;;;;;;;;;11.26;82.85;99691.89;1660264;86;20134;-71
2022/04/27 06:37:33;;;;;;;;;;;;;;;11.29;81.14;99691.81;1660056;85;20816;-75
2022/04/27 06:40:03;;;;;;;;;;;;;;;11.31;82.63;99699.18;1660630;85;20503;-76
2022/04/27 06:42:37;;;;;;;;;;;;;;;11.42;82.50;99696.41;1663032;84;21200;-73
2022/04/27 06:45:08;;;;;;;;;;;;;;;11.54;81.16;99704.86;1648316;85;20157;-69
2022/04/27 06:47:57;;;;;;;;;;;;;;;11.65;79.66;99707.53;1660447;86;20480;-68
2022/04/27 06:50:37;;;;;;;;;;;;;;;11.72;78.61;99702.38;1587737;86;20458;-68
2022/04/27 06:53:20;;;;;;;;;;;;;;;11.87;79.87;99702.53;1645310;84;20152;-71
2022/04/27 06:56:16;;;;;;;;;;;;;;;12.02;75.56;99710.90;1635088;86;20739;-74
2022/04/27 06:59:00;;;;;;;;;;;;;;;12.07;73.35;99712.94;1657247;86;20480;-75
2022/04/27 07:01:30;;;;;;;;;;;;;;;12.12;75.85;99715.53;1661372;84;20106;-70
2022/04/27 07:04:01;;;;;;;;;;;;;;;12.16;72.81;99717.05;1661933;85;20098;-73
2022/04/27 07:06:27;;;;;;;;;;;;;;;12.20;72.60;99716.08;1660986;85;20118;-71
2022/04/27 07:09:02;;;;;;;;;;;;;;;12.27;71.45;99715.60;1635090;86;20127;-67
2022/04/27 07:11:32;;;;;;;;;;;;;;;12.38;72.30;99719.66;1661972;86;20137;-67
2022/04/27 07:14:17;;;;;;;;;;;;;;;;;;;;;
2022/04/27 07:16:39;;;;;;;;;;;;;;;12.66;72.66;99712.45;1659264;85;20094;-67
2022/04/27 07:19:09;;;;;;;;;;;;;;;12.84;71.36;99724.47;1660492;84;20082;-75
2022/04/27 07:21:39;;;;;;;;;;;;;;;12.95;67.62;99726.32;1661750;84;21837;-72
2022/04/27 07:24:06;;;;;;;;;;;;;;;12.97;67.74;99724.05;1660064;85;20142;-71
2022/04/27 07:26:37;;;;;;;;;;;;;;;13.03;67.46;99728.82;1660184;84;20144;-75
2022/04/27 07:29:11;;;;;;;;;;;;;;;13.10;68.24;99728.56;1664794;85;20206;-79
2022/04/27 07:31:40;;;;;;;;;;;;;;;13.26;67.53;99729.45;1663341;85;20448;-79
2022/04/27 07:34:12;;;;;;;;;;;;;;;13.43;63.33;99729.36;1664267;84;20475;-74
2022/04/27 07:36:39;;;;;;;;;;;;;;;13.58;65.80;99727.44;1662981;85;20122;-76
2022/04/27 07:39:06;;;;;;;;;;;;;;;13.81;65.17;99730.74;1662802;84;20450;-74
2022/04/27 07:41:33;;;;;;;;;;;;;;;13.99;62.61;99730.86;1665245;84;20453;-66
2022/04/27 07:44:10;;;;;;;;;;;;;;;14.06;61.93;99725.63;1641199;86;20448;-68
2022/04/27 07:46:38;;;;;;;;;;;;;;;14.14;60.39;99728.90;1660463;84;20473;-72
2022/04/27 07:49:08;;;;;;;;;;;;;;;14.18;59.16;99733.18;1663561;85;20145;-70
2022/04/27 07:51:36;;;;;;;;;;;;;;;14.26;56.82;99725.41;1643368;85;20157;-71
2022/04/27 07:54:20;;;;;;;;;;;;;;;14.43;59.88;99730.84;1622466;86;20125;-72
2022/04/27 07:56:39;;;;;;;;;;;;;;;14.72;59.19;99731.30;1646081;86;20214;-72
2022/04/27 07:59:09;;;;;;;;;;;;;;;14.90;57.82;99728.39;1657788;85;21131;-68
2022/04/27 08:01:36;;;;;;;;;;;;;;;14.96;56.52;99733.36;1639477;86;20133;-74
2022/04/27 08:04:04;;;;;;;;;;;;;;;14.95;55.74;99737.84;1648377;86;20169;-71
2022/04/27 08:06:32;;;;;;;;;;;;;;;14.88;55.58;99735.63;1663054;85;20101;-69
2022/04/27 08:08:58;;;;;;;;;;;;;;;14.84;56.67;99734.70;1660707;85;20154;-69
2022/04/27 08:11:28;;;;;;;;;;;;;;;14.91;53.11;99738.30;1662021;86;20090;-70
2022/04/27 08:14:01;;;;;;;;;;;;;;;14.92;53.34;99730.23;1663908;86;20276;-70
2022/04/27 08:16:25;;;;;;;;;;;;;;;14.97;55.17;99737.74;1661672;85;20179;-69
2022/04/27 08:18:51;;;;;;;;;;;;;;;15.11;54.90;99738.22;1665049;84;20101;-72
2022/04/27 08:21:21;;;;;;;;;;;;;;;15.24;54.53;99739.64;1665241;84;20586;-71
2022/04/27 08:23:48;;;;;;;;;;;;;;;15.32;54.01;99740.13;1674266;85;20140;-73
2022/04/27 08:26:20;;;;;;;;;;;;;;;15.52;53.75;99746.97;1650384;86;20146;-67
2022/04/27 08:28:57;;;;;;;;;;;;;;;15.72;53.94;99742.49;1625791;87;20445;-67
2022/04/27 08:31:28;;;;;;;;;;;;;;;15.96;53.41;99743.66;1598293;88;20566;-67
2022/04/27 08:34:02;;;;;;;;;;;;;;;16.12;51.11;99738.45;1630002;88;20124;-67
2022/04/27 08:36:28;;;;;;;;;;;;;;;16.22;51.95;99737.14;1677743;85;21780;-67
2022/04/27 08:39:04;;;;;;;;;;;;;;;16.49;51.15;99732.23;1678715;85;20141;-68
2022/04/27 08:41:32;;;;;;;;;;;;;;;16.75;50.42;99735.20;1656377;85;20503;-69
2022/04/27 08:44:07;;;;;;;;;;;;;;;16.94;49.76;99741.45;1663177;85;20137;-67
2022/04/27 08:46:37;;;;;;;;;;;;;;;16.99;46.67;99732.30;1660175;86;20485;-67
2022/04/27 08:49:13;;;;;;;;;;;;;;;16.99;49.06;99740.61;1664488;84;21007;-67
2022/04/27 08:51:40;;;;;;;;;;;;;;;17.16;48.76;99739.50;1633061;85;20106;-69
2022/04/27 08:54:08;;;;;;;;;;;;;;;17.40;49.11;99745.45;1660772;84;20089;-69
2022/04/27 08:56:37;;;;;;;;;;;;;;;17.69;48.14;99745.06;1661587;85;20090;-69
2022/04/27 08:59:08;;;;;;;;;;;;;;;17.89;46.20;99740.98;1665416;84;20078;-67
2022/04/27 09:01:36;;;;;;;;;;;;;;;18.08;49.10;99739.63;1662508;85;20173;-70
2022/04/27 09:04:13;;;;;;;;;;;;;;;18.42;47.15;99736.64;1665236;84;20101;-69
2022/04/27 09:06:42;;;;;;;;;;;;;;;18.68;47.33;99731.26;1663721;85;20143;-67
2022/04/27 09:09:13;;;;;;;;;;;;;;;18.87;47.68;99730.45;1661354;85;20716;-70
2022/04/27 09:11:43;;;;;;;;;;;;;;;18.67;45.13;99733.02;1644140;84;20117;-67
2022/04/27 09:14:11;;;;;;;;;;;;;;;18.38;43.92;99735.17;1636761;85;20167;-76
2022/04/27 09:22:20;;;;;;;;;;;;;;;17.87;43.51;99739.15;1649982;86;20411;-67
2022/04/27 09:24:54;;;;;;;;;;;;;;;17.96;44.64;99736.96;1638266;85;20171;-68
2022/04/27 09:27:27;;;;;;;;;;;;;;;18.10;46.93;99735.91;1646050;86;21176;-68
2022/04/27 09:29:58;;;;;;;;;;;;;;;18.03;45.43;99735.73;1631783;86;20134;-69
2022/04/27 09:32:39;;;;;;;;;;;;;;;17.91;46.92;99737.27;1653916;85;20174;-68
2022/04/27 09:35:08;;;;;;;;;;;;;;;17.97;46.49;99739.38;1652924;85;20129;-68
2022/04/27 09:37:42;;;;;;;;;;;;;;;18.30;44.89;99737.57;1644056;86;20101;-68
2022/04/27 09:40:20;;;;;;;;;;;;;;;18.47;44.95;99742.72;1661476;84;20135;-66
2022/04/27 09:42:59;;;;;;;;;;;;;;;18.77;42.18;99747.73;1646829;85;20123;-65
2022/04/27 09:45:28;;;;;;;;;;;;;;;18.88;40.43;99743.19;1634263;85;20426;-65
2022/04/27 09:48:04;;;;;;;;;;;;;;;18.87;42.85;99740.78;1651066;85;20123;-65
2022/04/27 09:50:48;;;;;;;;;;;;;;;19.14;42.58;99741.90;1650874;85;20094;-66
2022/04/27 09:53:18;;;;;;;;;;;;;;;19.34;40.75;99742.67;1634457;84;20189;-65
2022/04/27 09:55:52;;;;;;;;;;;;;;;19.21;40.63;99746.80;1637211;84;20109;-65
2022/04/27 09:58:22;;;;;;;;;;;;;;;18.98;39.99;99750.14;1637405;85;20244;-65
2022/04/27 10:00:50;;;;;;;;;;;;;;;18.79;40.70;99747.58;1641812;84;20129;-65
2022/04/27 10:03:19;;;;;;;;;;;;;;;18.81;39.46;99744.44;1634169;85;20149;-65
2022/04/27 10:05:48;;;;;;;;;;;;;;;18.99;41.03;99742.02;1656282;85;21114;-66
2022/04/27 10:08:19;;;;;;;;;;;;;;;19.40;40.11;99739.00;1641129;85;20145;-67
2022/04/27 10:10:51;;;;;;;;;;;;;;;19.88;41.15;99741.63;1631159;85;20129;-66
2022/04/27 10:13:24;;;;;;;;;;;;;;;19.98;38.36;99741.59;1658714;85;20271;-65
2022/04/27 10:15:53;;;;;;;;;;;;;;;19.48;39.79;99737.95;1659511;85;20102;-65
2022/04/27 10:18:25;;;;;;;;;;;;;;;18.89;39.88;99745.39;1663902;84;21188;-65
2022/04/27 10:20:55;;;;;;;;;;;;;;;18.62;41.21;99743.03;1630396;86;20169;-64
2022/04/27 10:23:33;;;;;;;;;;;;;;;18.81;45.04;99745.83;1650880;86;20123;-66
2022/04/27 10:26:30;;;;;;;;;;;;;;;19.39;41.40;99738.78;1638627;86;20469;-66
2022/04/27 10:29:00;;;;;;;;;;;;;;;19.81;38.41;99735.14;1644222;85;20086;-66
2022/04/27 10:31:50;;;;;;;;;;;;;;;19.97;36.27;99741.37;1653262;85;21144;-66
2022/04/27 10:34:22;;;;;;;;;;;;;;;19.82;34.35;99738.14;1646772;85;20317;-66
2022/04/27 10:36:54;;;;;;;;;;;;;;;19.58;35.46;99734.59;1652343;85;20110;-66
2022/04/27 10:39:28;;;;;;;;;;;;;;;19.54;37.67;99738.48;1657611;85;20457;-66
2022/04/27 10:42:07;;;;;;;;;;;;;;;19.50;39.69;99742.56;1639675;85;20219;-66
2022/04/27 10:44:50;;;;;;;;;;;;;;;19.42;37.70;99729.69;1648514;85;21226;-65
2022/04/27 10:47:21;;;;;;;;;;;;;;;18.96;37.33;99740.77;1647788;84;20158;-66
2022/04/27 10:50:14;;;;;;;;;;;;;;;18.30;38.94;99754.83;1641900;85;20159;-65
2022/04/27 10:52:52;;;;;;;;;;;;;;;17.79;40.80;99757.60;1639113;85;20521;-66
2022/04/27 10:55:40;;;;;;;;;;;;;;;17.48;41.82;99758.36;1639432;85;20126;-66
2022/04/27 10:58:15;;;;;;;;;;;;;;;17.27;42.32;99757.82;1636319;85;21820;-65
2022/04/27 11:01:02;;;;;;;;;;;;;;;17.05;42.62;99747.52;1649255;85;20156;-66
2022/04/27 11:03:35;;;;;;;;;;;;;;;16.96;43.20;99760.73;1646506;85;20143;-66
2022/04/27 11:06:17;;;;;;;;;;;;;;;16.89;42.92;99764.69;1627015;85;20106;-66
2022/04/27 11:09:11;;;;;;;;;;;;;;;16.89;43.40;99763.88;1628616;86;20166;-65
2022/04/27 11:11:53;;;;;;;;;;;;;;;16.87;43.52;99764.23;1628289;86;20130;-66
2022/04/27 11:14:22;;;;;;;;;;;;;;;16.67;43.16;99765.25;1643553;86;20427;-66
2022/04/27 11:16:52;;;;;;;;;;;;;;;16.57;45.94;99766.52;1627507;86;20157;-66
2022/04/27 11:19:20;;;;;;;;;;;;;;;16.70;45.67;99769.52;1607338;87;20447;-66
2022/04/27 11:21:48;;;;;;;;;;;;;;;16.84;43.71;99771.87;1638083;86;20189;-67
2022/04/27 11:24:15;;;;;;;;;;;;;;;16.82;43.64;99768.06;1649174;85;21113;-67
2022/04/27 11:26:44;;;;;;;;;;;;;;;16.84;43.71;99769.09;1656703;84;20468;-66
2022/04/27 11:29:12;;;;;;;;;;;;;;;16.95;41.83;99764.66;1663532;85;20186;-67
2022/04/27 11:31:39;;;;;;;;;;;;;;;16.99;40.29;99762.80;1648540;85;20173;-66
2022/04/27 11:34:26;;;;;;;;;;;;;;;17.05;42.66;99759.20;1660169;85;20094;-67
2022/04/27 11:36:54;;;;;;;;;;;;;;;17.23;41.27;99762.47;1639999;85;20264;-67
2022/04/27 11:39:22;;;;;;;;;;;;;;;17.44;42.28;99754.69;1640079;85;20152;-66
2022/04/27 11:41:58;;;;;;;;;;;;;;;17.68;41.04;99753.17;1656353;85;20089;-66
2022/04/27 11:44:32;;;;;;;;;;;;;;;17.92;39.25;99756.31;1623957;86;20132;-66
2022/04/27 11:47:14;;;;;;;;;;;;;;;17.95;38.44;99751.43;1642496;85;20137;-66
2022/04/27 11:49:39;;;;;;;;;;;;;;;17.87;39.13;99743.31;1653182;85;20539;-67
2022/04/27 11:52:09;;;;;;;;;;;;;;;17.83;37.97;99741.84;1657306;85;20106;-67
2022/04/27 11:54:39;;;;;;;;;;;;;;;17.90;38.75;99745.38;1660626;85;20201;-67
2022/04/27 11:57:13;;;;;;;;;;;;;;;18.04;41.31;99745.10;1637726;85;20198;-67
2022/04/27 11:59:43;;;;;;;;;;;;;;;18.24;41.58;99736.23;1658362;85;20464;-66
2022/04/27 12:02:10;;;;;;;;;;;;;;;18.51;42.25;99740.58;1651447;85;21288;-67
2022/04/27 12:04:37;;;;;;;;;;;;;;;18.75;40.40;99740.34;1656657;85;20098;-66
2022/04/27 12:07:16;;;;;;;;;;;;;;;19.00;37.25;99736.09;1656000;85;20168;-66
2022/04/27 12:10:00;;;;;;;;;;;;;;;19.17;38.69;99738.16;1664407;86;20122;-66
2022/04/27 12:12:39;;;;;;;;;;;;;;;19.30;38.95;99731.25;1636494;86;20134;-65
2022/04/27 12:15:08;;;;;;;;;;;;;;;19.39;38.69;99736.80;1665766;85;21094;-70
2022/04/27 12:17:53;;;;;;;;;;;;;;;19.37;38.24;99739.73;1662632;85;20110;-70
2022/04/27 12:20:41;;;;;;;;;;;;;;;19.26;38.41;99733.97;1659681;85;20158;-66
2022/04/27 12:23:10;;;;;;;;;;;;;;;18.94;36.19;99731.98;1654882;86;20415;-66
2022/04/27 12:25:49;;;;;;;;;;;;;;;18.63;36.77;99738.50;1656030;85;20126;-65
2022/04/27 12:28:20;;;;;;;;;;;;;;;18.41;37.94;99741.39;1628467;86;20089;-66
2022/04/27 12:30:53;;;;;;;;;;;;;;;18.31;36.55;99733.63;1651698;86;20122;-65
2022/04/27 12:33:24;;;;;;;;;;;;;;;18.33;36.96;99736.04;1659699;84;20476;-65
2022/04/27 12:39:07;;;;;;;;;;;;;;;18.50;36.99;99736.98;1664634;84;20452;-65
2022/04/27 12:41:40;;;;;;;;;;;;;;;18.73;39.40;99735.72;1639643;85;20520;-65
2022/04/27 12:44:12;;;;;;;;;;;;;;;19.04;36.34;99727.81;1656286;85;20215;-65
2022/04/27 12:47:00;;;;;;;;;;;;;;;19.24;36.92;99729.36;1643038;84;20104;-66
2022/04/27 12:49:32;;;;;;;;;;;;;;;19.40;34.27;99727.86;1667525;85;20531;-66
2022/04/27 12:52:26;;;;;;;;;;;;;;;19.39;36.07;99720.10;1667609;85;20141;-66
2022/04/27 12:55:05;;;;;;;;;;;;;;;19.43;35.57;99727.93;1662383;84;21274;-66
2022/04/27 12:57:59;;;;;;;;;;;;;;;19.48;33.57;99722.64;1669061;85;20140;-65
2022/04/27 13:00:55;;;;;;;;;;;;;;;19.38;34.34;99716.30;1660061;84;20094;-66
2022/04/27 13:03:13;;;;;;;;;;;;;;;19.36;34.69;99717.25;1621031;86;20463;-65
2022/04/27 13:05:45;;;;;;;;;;;;;;;19.57;36.53;99717.66;1607422;88;20451;-66
2022/04/27 13:08:14;;;;;;;;;;;;;;;19.76;36.58;99719.54;1643851;85;20605;-66
2022/04/27 13:13:36;;;;;;;;;;;;;;;19.59;32.57;99716.70;1628446;85;20164;-65
2022/04/27 13:16:03;;;;;;;;;;;;;;;19.32;33.55;99709.42;1646893;85;20078;-65
2022/04/27 13:18:36;;;;;;;;;;;;;;;19.36;34.04;99711.09;1650084;85;20111;-65
2022/04/27 13:21:20;;;;;;;;;;;;;;;19.74;32.97;99707.38;1651478;85;21914;-65
2022/04/27 13:23:35;;;;;;;;;;;;;;;20.05;33.03;99704.89;1653095;85;20102;-66
2022/04/27 13:26:09;;;;;;;;;;;;;;;20.26;33.27;99710.53;1649071;85;20471;-66
2022/04/27 13:28:40;;;;;;;;;;;;;;;20.35;32.85;99716.05;1648524;85;20452;-66
2022/04/27 13:31:25;;;;;;;;;;;;;;;;;;;;;
2022/04/27 13:33:46;;;;;;;;;;;;;;;20.10;33.78;99715.71;1644936;85;21163;-66
2022/04/27 13:36:17;;;;;;;;;;;;;;;20.00;32.65;99716.94;1651283;85;20094;-67
2022/04/27 13:38:44;;;;;;;;;;;;;;;19.91;33.74;99719.19;1656880;85;20090;-67
2022/04/27 13:41:18;;;;;;;;;;;;;;;19.91;34.23;99717.20;1620798;85;20272;-67
2022/04/27 13:43:56;;;;;;;;;;;;;;;19.95;34.79;99719.45;1653130;85;20122;-67